^^
Station Historical Data
Daily Summary for June 14, 2017 Units:  Metric    English   Both
« Previous Day
Next Day »
Daily Weekly Monthly Yearly Custom
  High: Low: Average:
Temperature: 20.8 °C 6.7 °C 10.9 °C
Dew Point: 5.9 °C -4.3 °C -0.9 °C
Humidity: 63% 25% 45%
Wind Speed: 19.5km/h 0km/h 2.6km/h
Wind Gust: 20.9km/h - -
Wind- - SSW
Pressure: 1020.2 hPa 1015.5 hPa -
Precipitation: 0 mm    
Historical Graphs
 
 
Tabular Data for June 14, 2017
Time Temperature Dew Point Pressure Wind Wind Speed Wind Gust Humidity Rainfall Rate (Hourly) solar Conditions
00:03 10.2 °C -3.9 °C 1016.8 hPa Calm     37% 0 mm 0.0 W/m2
00:08 10.1 °C -3.6 °C 1016.8 hPa Calm     38% 0 mm 0.0 W/m2
00:13 10.1 °C -3.6 °C 1016.8 hPa Calm     38% 0 mm 0.0 W/m2
00:18 10.3 °C -3.8 °C 1016.5 hPa Calm     37% 0 mm 0.0 W/m2
00:23 10.4 °C -3.7 °C 1016.8 hPa Calm     37% 0 mm 0.0 W/m2
00:28 10.4 °C -3.7 °C 1016.8 hPa Calm     37% 0 mm 0.0 W/m2
00:33 10.3 °C -3.4 °C 1016.5 hPa Calm     38% 0 mm 0.0 W/m2
00:38 10.1 °C -3.2 °C 1016.8 hPa Calm     39% 0 mm 0.0 W/m2
00:44 9.9 °C -3.4 °C 1016.8 hPa Calm     39% 0 mm 0.0 W/m2
00:49 9.8 °C -3.5 °C 1016.8 hPa Calm     39% 0 mm 0.0 W/m2
00:55 9.7 °C -3.3 °C 1016.8 hPa Calm     40% 0 mm 0.0 W/m2
01:00 9.8 °C -2.8 °C 1016.5 hPa Calm     41% 0 mm 0.0 W/m2
01:05 10.1 °C -2.9 °C 1016.5 hPa Calm     40% 0 mm 0.0 W/m2
01:10 9.9 °C -2.7 °C 1016.5 hPa Calm     41% 0 mm 0.0 W/m2
01:15 9.7 °C -2.9 °C 1016.5 hPa Calm     41% 0 mm 0.0 W/m2
01:20 9.6 °C -3 °C 1016.5 hPa Calm     41% 0 mm 0.0 W/m2
01:25 9.4 °C -2.6 °C 1016.5 hPa Calm     43% 0 mm 0.0 W/m2
01:31 9.4 °C -2.6 °C 1016.5 hPa Calm     43% 0 mm 0.0 W/m2
01:36 9.3 °C -2.6 °C 1016.5 hPa Calm     43% 0 mm 0.0 W/m2
01:41 9.2 °C -2.7 °C 1016.5 hPa Calm     43% 0 mm 0.0 W/m2
01:46 9.1 °C -2.5 °C 1016.1 hPa Calm     44% 0 mm 0.0 W/m2
01:52 9.1 °C -3.1 °C 1016.1 hPa Calm     42% 0 mm 0.0 W/m2
01:57 9 °C -2.9 °C 1016.1 hPa Calm     43% 0 mm 0.0 W/m2
02:03 9 °C -2 °C 1016.1 hPa Calm     46% 0 mm 0.0 W/m2
02:08 9.2 °C -2.4 °C 1016.1 hPa Calm     44% 0 mm 0.0 W/m2
02:13 9.2 °C -2.1 °C 1016.1 hPa Calm     45% 0 mm 0.0 W/m2
02:18 9.3 °C -1.4 °C 1016.1 hPa Calm     47% 0 mm 0.0 W/m2
02:24 9.4 °C -2.6 °C 1016.1 hPa Calm     43% 0 mm 0.0 W/m2
02:29 9.3 °C -2.3 °C 1016.1 hPa Calm     44% 0 mm 0.0 W/m2
02:34 9.2 °C -2.7 °C 1016.1 hPa Calm     43% 0 mm 0.0 W/m2
02:39 9 °C -2.9 °C 1015.8 hPa Calm     43% 0 mm 0.0 W/m2
02:44 8.9 °C -3 °C 1015.8 hPa Calm     43% 0 mm 0.0 W/m2
02:49 8.7 °C -2.6 °C 1015.8 hPa Calm     45% 0 mm 0.0 W/m2
02:54 8.6 °C -2.7 °C 1015.8 hPa Calm     45% 0 mm 0.0 W/m2
02:59 8.5 °C -2.8 °C 1015.8 hPa Calm     45% 0 mm 0.0 W/m2
03:04 8.4 °C -2.9 °C 1015.8 hPa Calm     45% 0 mm 0.0 W/m2
03:10 8.4 °C -2.6 °C 1015.8 hPa Calm     46% 0 mm 0.0 W/m2
03:15 8.5 °C -2.8 °C 1015.8 hPa Calm     45% 0 mm 0.0 W/m2
03:20 8.4 °C -2.6 °C 1015.8 hPa Calm     46% 0 mm 0.0 W/m2
03:25 8.2 °C -2.7 °C 1015.8 hPa Calm     46% 0 mm 0.0 W/m2
03:30 8.1 °C -2.8 °C 1015.8 hPa Calm     46% 0 mm 0.0 W/m2
03:35 8.1 °C -2.8 °C 1015.8 hPa Calm     46% 0 mm 0.0 W/m2
03:40 8 °C -2.9 °C 1015.8 hPa Calm     46% 0 mm 0.0 W/m2
03:46 7.9 °C -3 °C 1015.5 hPa Calm     46% 0 mm 0.0 W/m2
03:51 7.8 °C -3.1 °C 1015.5 hPa Calm     46% 0 mm 0.0 W/m2
03:56 7.8 °C -3.1 °C 1015.5 hPa Calm     46% 0 mm 0.0 W/m2
04:02 7.9 °C -3.3 °C 1015.5 hPa Calm     45% 0 mm 0.0 W/m2
04:07 7.9 °C -3.3 °C 1015.5 hPa Calm     45% 0 mm 0.0 W/m2
04:13 7.9 °C -3.3 °C 1015.5 hPa Calm     45% 0 mm 0.0 W/m2
04:18 7.9 °C -3.6 °C 1015.5 hPa Calm     44% 0 mm 0.0 W/m2
04:23 7.9 °C -3.6 °C 1015.5 hPa Calm     44% 0 mm 0.0 W/m2
04:28 7.9 °C -3.6 °C 1015.8 hPa Calm     44% 0 mm 0.0 W/m2
04:33 7.8 °C -3.7 °C 1015.5 hPa Calm     44% 0 mm 0.0 W/m2
04:44 7.7 °C -3.8 °C 1015.5 hPa Calm     44% 0 mm 0.0 W/m2
04:50 7.6 °C -3.9 °C 1015.5 hPa Calm     44% 0 mm 0.0 W/m2
04:55 7.4 °C -4.1 °C 1015.5 hPa Calm     44% 0 mm 0.0 W/m2
05:00 7.3 °C -4.2 °C 1015.5 hPa Calm     44% 0 mm 0.0 W/m2
05:05 7.1 °C -4.3 °C 1015.5 hPa Calm     44% 0 mm 0.0 W/m2
05:10 7 °C -4.1 °C 1015.8 hPa Calm     45% 0 mm 0.0 W/m2
05:16 7 °C -4.1 °C 1015.8 hPa Calm     45% 0 mm 0.0 W/m2
05:26 7 °C -4.1 °C 1015.8 hPa Calm     45% 0 mm 0.0 W/m2
05:31 7 °C -3.8 °C 1016.1 hPa Calm     46% 0 mm 0.0 W/m2
05:36 7 °C -3.8 °C 1016.1 hPa Calm     46% 0 mm 0.0 W/m2
05:41 7.2 °C -3.9 °C 1015.8 hPa Calm     45% 0 mm 0.0 W/m2
05:47 7.3 °C -3.9 °C 1016.1 hPa Calm     45% 0 mm 0.0 W/m2
05:52 7.2 °C -3.9 °C 1015.8 hPa Calm     45% 0 mm 0.0 W/m2
06:02 7 °C -3.8 °C 1016.1 hPa Calm     46% 0 mm 0.0 W/m2
06:12 6.7 °C -4.1 °C 1016.1 hPa Calm     46% 0 mm 0.0 W/m2
06:28 6.7 °C -4.1 °C 1016.1 hPa Calm     46% 0 mm 0.0 W/m2
06:33 6.7 °C -3.8 °C 1016.1 hPa Calm     47% 0 mm 0.0 W/m2
06:38 6.8 °C -3.5 °C 1016.5 hPa Calm     48% 0 mm 0.0 W/m2
06:48 7.8 °C -3.1 °C 1016.5 hPa Calm     46% 0 mm 9.0 W/m2
06:58 8.1 °C -2.8 °C 1016.5 hPa Calm     46% 0 mm 11.0 W/m2
07:03 8.9 °C -3 °C 1016.5 hPa Calm     43% 0 mm 14.0 W/m2
07:08 8.7 °C -3.5 °C 1016.5 hPa Calm     42% 0 mm 18.0 W/m2
07:17 8.5 °C -3.1 °C 1016.1 hPa Calm     44% 0 mm 19.0 W/m2
07:30 8.6 °C -3.3 °C 1016.8 hPa Calm     43% 0 mm 40.0 W/m2
08:02 10.6 °C -2.1 °C 1016.8 hPa Calm     41% 0 mm 204.0 W/m2
08:13 11.9 °C -2 °C 1016.8 hPa Calm     38% 0 mm 237.0 W/m2
08:20 12.9 °C -1.8 °C 1016.8 hPa Calm     36% 0 mm 267.0 W/m2
08:29 13.4 °C -1.8 °C 1016.8 hPa Calm     35% 0 mm 283.0 W/m2
08:35 13.9 °C -1.7 °C 1016.8 hPa Calm     34% 0 mm 306.0 W/m2
08:59 15.3 °C -0.9 °C 1016.8 hPa Calm     33% 0 mm 362.0 W/m2
09:09 16.2 °C -1 °C 1016.8 hPa Calm     31% 0 mm 387.0 W/m2
09:20 17.1 °C -0.6 °C 1016.8 hPa Calm     30% 0 mm 411.0 W/m2
09:32 17.6 °C -0.7 °C 1016.8 hPa Calm     29% 0 mm 434.0 W/m2
09:47 18.2 °C -0.1 °C 1016.8 hPa Calm     29% 0 mm 466.0 W/m2
09:57 19.1 °C 0.2 °C 1016.5 hPa Calm     28% 0 mm 496.0 W/m2
10:11 19.6 °C 0.1 °C 1016.5 hPa Calm     27% 0 mm 515.0 W/m2
10:30 20.8 °C 0 °C 1016.5 hPa Calm     25% 0 mm 545.0 W/m2
10:39 20.8 °C 0 °C 1016.5 hPa Calm     25% 0 mm 555.0 W/m2
18:07 18 °C 0.2 °C 1016.8 hPa SSW 17.7 km/h 19.3 km/h 30% 0 mm 0.0 W/m2
18:16 17.6 °C 0.7 °C 1016.8 hPa SSW 17.7 km/h 19.3 km/h 32% 0 mm 0.0 W/m2
18:26 17.3 °C 1.3 °C 1017.2 hPa SSW 17.7 km/h 20.9 km/h 34% 0 mm 0.0 W/m2
18:31 17.2 °C 1.6 °C 1017.2 hPa SSW 19.5 km/h 19.5 km/h 35% 0 mm 0.0 W/m2
18:38 17 °C 1.8 °C 1017.2 hPa SSW 14.3 km/h 17.7 km/h 36% 0 mm 0.0 W/m2
18:46 16.8 °C 2 °C 1017.2 hPa SSW 11.1 km/h 14.5 km/h 37% 0 mm 0.0 W/m2
18:57 16.2 °C 1.9 °C 1017.5 hPa SSW 11.1 km/h 16.1 km/h 38% 0 mm 0.0 W/m2
19:12 15.9 °C 2.3 °C 1017.5 hPa SSW 11.1 km/h 14.5 km/h 40% 0 mm 0.0 W/m2
19:27 15.6 °C 2.4 °C 1017.8 hPa SSW 9.7 km/h 12.9 km/h 41% 0 mm 0.0 W/m2
19:37 15 °C 2.5 °C 1017.8 hPa SSW 9.7 km/h 14.5 km/h 43% 0 mm 0.0 W/m2
19:56 15.1 °C 2.9 °C 1017.8 hPa SSW 9.7 km/h 12.9 km/h 44% 0 mm 0.0 W/m2
20:07 15.2 °C 3 °C 1017.8 hPa SSW 7.9 km/h 11.3 km/h 44% 0 mm 0.0 W/m2
20:22 14.8 °C 3 °C 1018.2 hPa SSW 16.3 km/h 17.7 km/h 45% 0 mm 0.0 W/m2
20:32 14.5 °C 3.3 °C 1018.5 hPa SSW 11.1 km/h 12.9 km/h 47% 0 mm 0.0 W/m2
20:47 14.5 °C 3.9 °C 1018.8 hPa SSW 11.1 km/h 14.5 km/h 49% 0 mm 0.0 W/m2
21:01 14.3 °C 4 °C 1018.8 hPa SSW 11.1 km/h 12.9 km/h 50% 0 mm 0.0 W/m2
21:07 14.1 °C 4.1 °C 1018.8 hPa SSW 13 km/h 14.5 km/h 51% 0 mm 0.0 W/m2
21:53 13.4 °C 4.8 °C 1019.2 hPa SSW 4.7 km/h 8 km/h 56% 0 mm 0.0 W/m2
21:58 13.3 °C 4.7 °C 1019.2 hPa SSW 6.4 km/h 6.4 km/h 56% 0 mm 0.0 W/m2
22:03 13 °C 4.4 °C 1019.5 hPa Calm     56% 0 mm 0.0 W/m2
22:08 12.7 °C 4.4 °C 1019.5 hPa SSW 6.4 km/h 6.4 km/h 57% 0 mm 0.0 W/m2
22:13 12.6 °C 5 °C 1019.5 hPa SSW 4.7 km/h 8 km/h 60% 0 mm 0.0 W/m2
22:18 12.5 °C 5.2 °C 1019.5 hPa SSW 6.4 km/h 8 km/h 61% 0 mm 0.0 W/m2
22:23 12.6 °C 5.7 °C 1019.5 hPa SSW 11.1 km/h 14.5 km/h 63% 0 mm 0.0 W/m2
22:28 12.8 °C 5.9 °C 1019.5 hPa SSW 11.1 km/h 14.5 km/h 63% 0 mm 0.0 W/m2
22:33 12.8 °C 5.7 °C 1019.5 hPa SSW 9.7 km/h 14.5 km/h 62% 0 mm 0.0 W/m2
22:43 12.8 °C 5.5 °C 1019.5 hPa SSW 11.1 km/h 11.3 km/h 61% 0 mm 0.0 W/m2
22:48 12.6 °C 5.5 °C 1019.5 hPa SSW 9.7 km/h 12.9 km/h 62% 0 mm 0.0 W/m2
22:54 12.6 °C 5.5 °C 1019.5 hPa SSW 11.1 km/h 12.9 km/h 62% 0 mm 0.0 W/m2
23:04 12.4 °C 5.3 °C 1019.5 hPa SSW 7.9 km/h 9.7 km/h 62% 0 mm 0.0 W/m2
23:09 12.2 °C 5.1 °C 1019.9 hPa SSW 4.7 km/h 8 km/h 62% 0 mm 0.0 W/m2
23:14 12.1 °C 4.8 °C 1019.9 hPa Calm     61% 0 mm 0.0 W/m2
23:24 11.8 °C 4.8 °C 1019.9 hPa Calm     62% 0 mm 0.0 W/m2
23:29 11.7 °C 4.7 °C 1019.9 hPa Calm     62% 0 mm 0.0 W/m2
23:39 11.7 °C 4.9 °C 1019.9 hPa SSW 7.9 km/h 9.7 km/h 63% 0 mm 0.0 W/m2
23:44 11.7 °C 4.7 °C 1019.9 hPa SSW 4.7 km/h 8 km/h 62% 0 mm 0.0 W/m2
23:54 11.6 °C 4.3 °C 1019.9 hPa Calm     61% 0 mm 0.0 W/m2
23:59 11.6 °C 4.3 °C 1020.2 hPa Calm     61% 0 mm 0.0 W/m2
Canyon Roadhouse, Fishriver Canyon, Namibia
Compliments of Weather Underground - 2.25 mb